createdAt,value
2022-12-03T00:00:30.124Z,5.53
2022-12-03T00:02:56.916Z,5.55
2022-12-03T00:05:23.606Z,5.64
2022-12-03T00:07:50.395Z,5.66
2022-12-03T00:10:17.194Z,5.63
2022-12-03T00:12:43.811Z,5.78
2022-12-03T00:15:11.272Z,5.81
2022-12-03T00:17:38.344Z,5.81
2022-12-03T00:20:07.850Z,5.87
2022-12-03T00:22:34.726Z,5.76
2022-12-03T00:25:01.333Z,5.80
2022-12-03T00:27:28.170Z,5.80
2022-12-03T00:29:55.021Z,5.68
2022-12-03T00:32:21.692Z,5.69
2022-12-03T00:34:48.343Z,5.70
2022-12-03T00:37:15.033Z,5.69
2022-12-03T00:39:41.655Z,5.80
2022-12-03T00:42:08.293Z,5.73
2022-12-03T00:44:34.964Z,5.66
2022-12-03T00:47:01.692Z,5.64
2022-12-03T00:49:28.445Z,5.69
2022-12-03T00:51:55.199Z,5.49
2022-12-03T00:54:26.814Z,5.55
2022-12-03T00:56:56.908Z,5.53
2022-12-03T00:59:23.545Z,5.47
2022-12-03T01:01:50.236Z,5.44
2022-12-03T01:04:17.001Z,5.42
2022-12-03T01:06:43.774Z,5.41
2022-12-03T01:09:10.456Z,5.32
2022-12-03T01:11:41.446Z,5.40
2022-12-03T01:14:11.183Z,5.37
2022-12-03T01:16:38.281Z,5.56
2022-12-03T01:19:06.158Z,5.57
2022-12-03T01:21:33.733Z,5.48
2022-12-03T01:24:00.598Z,5.47
2022-12-03T01:26:27.287Z,5.52
2022-12-03T01:28:54.011Z,5.44
2022-12-03T01:31:59.140Z,5.58
2022-12-03T01:34:25.910Z,5.70
2022-12-03T01:36:52.699Z,5.67
2022-12-03T01:39:20.065Z,5.65
2022-12-03T01:41:48.845Z,5.76
2022-12-03T01:44:20.586Z,5.76
2022-12-03T01:46:47.848Z,5.75
2022-12-03T01:49:19.080Z,5.81
2022-12-03T01:51:47.311Z,5.73
2022-12-03T01:54:18.632Z,5.61
2022-12-03T01:56:46.247Z,5.75
2022-12-03T01:59:22.126Z,5.76
2022-12-03T02:01:49.509Z,5.65
2022-12-03T02:04:19.816Z,5.64
2022-12-03T02:06:46.568Z,5.62
2022-12-03T02:09:14.156Z,5.52
2022-12-03T02:11:47.125Z,5.67
2022-12-03T02:14:20.915Z,5.62
2022-12-03T02:16:48.301Z,5.68
2022-12-03T02:19:24.051Z,5.70
2022-12-03T02:22:11.519Z,5.80
2022-12-03T02:24:52.844Z,5.72
2022-12-03T02:27:20.012Z,5.80
2022-12-03T02:29:46.757Z,5.76
2022-12-03T02:32:13.554Z,5.70
2022-12-03T02:34:42.450Z,5.60
2022-12-03T02:37:17.751Z,5.66
2022-12-03T02:39:51.795Z,5.69
2022-12-03T02:42:37.905Z,5.57
2022-12-03T02:45:12.614Z,5.62
2022-12-03T02:47:44.570Z,5.48
2022-12-03T02:50:14.323Z,5.54
2022-12-03T02:52:43.274Z,5.51
2022-12-03T02:55:10.355Z,5.48
2022-12-03T02:57:39.143Z,5.45
2022-12-03T03:00:08.767Z,5.42
2022-12-03T03:02:37.357Z,5.44
2022-12-03T03:05:06.403Z,5.38
2022-12-03T03:07:33.836Z,5.39
2022-12-03T03:10:02.056Z,5.45
2022-12-03T03:12:28.836Z,5.41
2022-12-03T03:14:55.712Z,5.36
2022-12-03T03:17:22.850Z,5.53
2022-12-03T03:19:49.682Z,5.47
2022-12-03T03:22:17.144Z,5.55
2022-12-03T03:24:43.878Z,5.51
2022-12-03T03:27:11.265Z,5.46
2022-12-03T03:29:38.214Z,5.56
2022-12-03T03:32:05.294Z,5.63
2022-12-03T03:34:33.207Z,5.73
2022-12-03T03:36:59.942Z,5.53
2022-12-03T03:39:26.667Z,5.55
2022-12-03T03:41:53.479Z,5.56
2022-12-03T03:44:20.185Z,5.49
2022-12-03T03:46:46.943Z,5.54
2022-12-03T03:49:13.740Z,5.54
2022-12-03T03:51:40.810Z,5.54
2022-12-03T03:54:08.250Z,5.64
2022-12-03T03:56:35.338Z,5.58
2022-12-03T03:59:03.061Z,5.65
2022-12-03T04:01:30.447Z,5.48
2022-12-03T04:03:59.742Z,5.54
2022-12-03T04:06:27.652Z,5.66
2022-12-03T04:08:54.973Z,5.70
2022-12-03T04:11:40.608Z,5.68
2022-12-03T04:14:07.265Z,5.63
2022-12-03T04:16:34.029Z,5.67
2022-12-03T04:19:00.778Z,5.62
2022-12-03T04:21:45.860Z,5.74
2022-12-03T04:24:12.674Z,5.80
2022-12-03T04:26:57.698Z,5.98
2022-12-03T04:29:24.600Z,5.98
2022-12-03T04:32:10.010Z,5.78
2022-12-03T04:34:55.859Z,5.85
2022-12-03T04:37:22.755Z,5.65
2022-12-03T04:39:49.398Z,5.66
2022-12-03T04:42:16.176Z,5.52
2022-12-03T04:44:43.044Z,5.48
2022-12-03T04:47:18.326Z,5.43
2022-12-03T04:49:47.355Z,5.47
2022-12-03T04:52:16.694Z,5.52
2022-12-03T04:54:44.007Z,5.55
2022-12-03T04:57:11.982Z,5.54
2022-12-03T04:59:39.251Z,5.51
2022-12-03T05:02:06.926Z,5.43
2022-12-03T05:04:34.147Z,5.43
2022-12-03T05:07:00.844Z,5.45
2022-12-03T05:09:27.580Z,5.49
2022-12-03T05:11:54.275Z,5.39
2022-12-03T05:14:21.022Z,5.41
2022-12-03T05:16:47.732Z,5.41
2022-12-03T05:19:14.499Z,5.50
2022-12-03T05:21:41.183Z,5.54
2022-12-03T05:24:08.009Z,5.59
2022-12-03T05:26:34.709Z,5.62
2022-12-03T05:29:01.337Z,5.54
2022-12-03T05:31:28.148Z,5.52
2022-12-03T05:33:55.268Z,5.44
2022-12-03T05:36:25.422Z,5.54
2022-12-03T05:38:52.121Z,5.55
2022-12-03T05:41:37.456Z,5.55
2022-12-03T05:44:04.207Z,5.50
2022-12-03T05:46:31.548Z,5.42
2022-12-03T05:48:58.257Z,5.45
2022-12-03T05:51:24.931Z,5.43
2022-12-03T05:53:51.554Z,5.41
2022-12-03T05:56:18.211Z,5.47
2022-12-03T05:58:44.924Z,5.52
2022-12-03T06:01:11.654Z,5.33
2022-12-03T06:03:38.438Z,5.48
2022-12-03T06:06:05.446Z,5.46
2022-12-03T06:08:32.113Z,5.43
2022-12-03T06:10:58.765Z,5.52
2022-12-03T06:13:25.392Z,5.36
2022-12-03T06:15:52.049Z,5.37
2022-12-03T06:18:18.780Z,5.45
2022-12-03T06:20:45.480Z,5.31
2022-12-03T06:23:12.185Z,5.36
2022-12-03T06:25:38.804Z,5.48
2022-12-03T06:28:06.291Z,5.36
2022-12-03T06:30:34.339Z,5.52
2022-12-03T06:33:01.017Z,5.44
2022-12-03T06:35:27.640Z,5.57
2022-12-03T06:37:54.369Z,5.63
2022-12-03T06:40:21.112Z,5.69
2022-12-03T06:42:47.800Z,5.71
2022-12-03T06:45:14.452Z,5.92
2022-12-03T06:47:41.867Z,6.04
2022-12-03T06:50:08.985Z,6.02
2022-12-03T06:52:36.112Z,5.86
2022-12-03T06:55:02.897Z,5.96
2022-12-03T06:57:29.687Z,5.81
2022-12-03T06:59:56.581Z,5.76
2022-12-03T07:02:23.539Z,5.82
2022-12-03T07:04:50.330Z,5.67
2022-12-03T07:07:17.053Z,5.71
2022-12-03T07:09:43.851Z,5.68
2022-12-03T07:12:10.568Z,5.69
2022-12-03T07:14:37.247Z,5.70
2022-12-03T07:17:03.937Z,5.76
2022-12-03T07:19:32.784Z,5.90
2022-12-03T07:21:59.986Z,5.83
2022-12-03T07:24:26.649Z,5.93
2022-12-03T07:26:53.367Z,5.77
2022-12-03T07:29:20.062Z,5.75
2022-12-03T07:31:46.853Z,5.90
2022-12-03T07:34:13.689Z,5.98
2022-12-03T07:36:40.360Z,5.95
2022-12-03T07:39:07.080Z,6.18
2022-12-03T07:41:33.819Z,6.02
2022-12-03T07:44:00.434Z,6.07
2022-12-03T07:46:27.148Z,6.00
2022-12-03T07:48:53.779Z,5.96
2022-12-03T07:51:20.482Z,5.94
2022-12-03T07:53:47.133Z,5.96
2022-12-03T07:56:13.857Z,6.01
2022-12-03T07:58:40.561Z,6.17
2022-12-03T08:01:07.350Z,6.22
2022-12-03T08:03:34.019Z,6.31
2022-12-03T08:06:00.936Z,6.42
2022-12-03T08:08:27.580Z,6.44
2022-12-03T08:10:54.369Z,6.38
2022-12-03T08:13:21.063Z,6.45
2022-12-03T08:15:47.770Z,6.34
2022-12-03T08:18:18.520Z,6.49
2022-12-03T08:20:46.709Z,6.63
2022-12-03T08:23:16.759Z,6.70
2022-12-03T08:25:45.102Z,6.84
2022-12-03T08:28:14.638Z,6.71
2022-12-03T08:30:43.116Z,6.70
2022-12-03T08:33:18.857Z,6.69
2022-12-03T08:35:50.880Z,6.81
2022-12-03T08:38:21.572Z,6.81
2022-12-03T08:40:51.220Z,6.79
2022-12-03T08:43:27.243Z,6.76
2022-12-03T08:45:58.243Z,6.61
2022-12-03T08:48:27.588Z,6.65
2022-12-03T08:51:00.167Z,6.64
2022-12-03T08:53:37.722Z,6.57
2022-12-03T08:56:26.158Z,6.66
2022-12-03T08:58:56.163Z,6.49
2022-12-03T09:01:44.666Z,6.37
2022-12-03T09:04:21.943Z,6.48
2022-12-03T09:06:48.887Z,6.50
2022-12-03T09:09:15.872Z,6.52
2022-12-03T09:11:43.464Z,6.65
2022-12-03T09:14:16.736Z,6.75
2022-12-03T09:16:45.292Z,6.71
2022-12-03T09:19:12.125Z,6.74
2022-12-03T09:21:38.804Z,6.72
2022-12-03T09:24:05.728Z,6.75
2022-12-03T09:26:32.451Z,6.70
2022-12-03T09:28:59.108Z,6.56
2022-12-03T09:31:25.926Z,6.72
2022-12-03T09:33:52.643Z,6.78
2022-12-03T09:36:19.337Z,6.79
2022-12-03T09:38:47.932Z,6.81
2022-12-03T09:41:15.089Z,6.76
2022-12-03T09:46:30.181Z,6.90
2022-12-03T09:48:57.312Z,7.01
2022-12-03T09:51:27.635Z,6.98
2022-12-03T09:56:48.788Z,7.29
2022-12-03T09:59:16.762Z,7.21
2022-12-03T10:01:44.304Z,7.40
2022-12-03T10:04:13.747Z,7.48
2022-12-03T10:06:45.600Z,7.34
2022-12-03T10:09:17.427Z,7.51
2022-12-03T10:11:44.433Z,7.49
2022-12-03T10:14:14.599Z,7.45
2022-12-03T10:16:42.220Z,7.40
2022-12-03T10:19:23.843Z,7.69
2022-12-03T10:21:50.738Z,7.77
2022-12-03T10:24:17.358Z,7.75
2022-12-03T10:26:46.106Z,7.81
2022-12-03T10:29:21.959Z,7.71
2022-12-03T10:32:05.775Z,7.85
2022-12-03T10:34:38.259Z,7.74
2022-12-03T10:37:21.025Z,7.77
2022-12-03T10:40:13.993Z,7.92
2022-12-03T10:42:41.642Z,7.76
2022-12-03T10:45:22.712Z,7.73
2022-12-03T10:48:11.201Z,7.77
2022-12-03T10:50:45.917Z,7.87
2022-12-03T10:53:12.746Z,7.82
2022-12-03T10:55:42.018Z,7.74
2022-12-03T10:58:30.383Z,7.84
2022-12-03T11:00:58.688Z,7.88
2022-12-03T11:03:28.241Z,7.84
2022-12-03T11:05:57.176Z,7.83
2022-12-03T11:08:30.775Z,7.86
2022-12-03T11:11:02.500Z,7.88
2022-12-03T11:13:35.212Z,7.98
2022-12-03T11:16:04.381Z,7.91
2022-12-03T11:18:37.313Z,7.83
2022-12-03T11:21:09.195Z,7.83
2022-12-03T11:23:44.984Z,7.96
2022-12-03T11:26:19.578Z,8.00
2022-12-03T11:28:46.610Z,7.96
2022-12-03T11:31:36.202Z,7.86
2022-12-03T11:34:18.119Z,7.87
2022-12-03T11:37:09.617Z,7.85
2022-12-03T11:39:48.082Z,7.92
2022-12-03T11:42:26.682Z,7.94
2022-12-03T11:45:14.088Z,7.95
2022-12-03T11:47:44.112Z,7.92
2022-12-03T11:50:28.968Z,7.99
2022-12-03T11:53:10.830Z,7.99
2022-12-03T11:55:40.455Z,8.10
2022-12-03T11:58:21.641Z,8.01
2022-12-03T12:00:53.383Z,7.86
2022-12-03T12:03:26.877Z,8.01
2022-12-03T12:06:20.895Z,7.89
2022-12-03T12:08:58.710Z,7.92
2022-12-03T12:11:35.311Z,7.99
2022-12-03T12:14:03.531Z,7.88
2022-12-03T12:16:55.487Z,7.88
2022-12-03T12:19:34.543Z,7.52
2022-12-03T12:22:25.015Z,7.58
2022-12-03T12:24:53.037Z,7.70
2022-12-03T12:27:32.624Z,7.63
2022-12-03T12:30:12.810Z,7.73
2022-12-03T12:32:47.291Z,7.86
2022-12-03T12:35:28.891Z,7.71
2022-12-03T12:38:07.434Z,7.82
2022-12-03T12:40:39.831Z,7.95
2022-12-03T12:43:26.275Z,8.01
2022-12-03T12:45:55.299Z,7.91
2022-12-03T12:48:27.941Z,7.95
2022-12-03T12:51:13.144Z,8.00
2022-12-03T12:53:42.909Z,7.87
2022-12-03T12:56:31.668Z,7.77
2022-12-03T12:59:11.339Z,7.68
2022-12-03T13:01:39.240Z,7.84
2022-12-03T13:04:12.979Z,7.68
2022-12-03T13:06:40.217Z,7.74
2022-12-03T13:09:19.770Z,7.57
2022-12-03T13:11:52.024Z,7.73
2022-12-03T13:14:21.168Z,7.51
2022-12-03T13:16:49.827Z,7.51
2022-12-03T13:19:16.591Z,7.57
2022-12-03T13:21:44.629Z,7.58
2022-12-03T13:24:37.213Z,7.58
2022-12-03T13:27:22.803Z,7.49
2022-12-03T13:29:53.406Z,7.34
2022-12-03T13:32:21.334Z,7.48
2022-12-03T13:34:50.596Z,7.48
2022-12-03T13:37:23.339Z,7.47
2022-12-03T13:39:52.475Z,7.46
2022-12-03T13:42:38.792Z,7.55
2022-12-03T13:45:15.040Z,7.53
2022-12-03T13:47:41.940Z,7.27
2022-12-03T13:50:20.853Z,7.41
2022-12-03T13:52:47.793Z,7.23
2022-12-03T13:55:24.850Z,7.27
2022-12-03T13:57:51.748Z,7.33
2022-12-03T14:00:18.940Z,7.17
2022-12-03T14:02:45.725Z,7.28
2022-12-03T14:05:12.512Z,7.18
2022-12-03T14:07:39.714Z,7.23
2022-12-03T14:10:09.347Z,7.28
2022-12-03T14:12:36.322Z,7.20
2022-12-03T14:15:05.227Z,7.19
2022-12-03T14:17:32.843Z,7.19
2022-12-03T14:20:01.546Z,7.11
2022-12-03T14:22:28.494Z,7.08
2022-12-03T14:24:55.612Z,7.03
2022-12-03T14:27:22.841Z,6.84
2022-12-03T14:29:49.482Z,7.01
2022-12-03T14:32:16.811Z,6.84
2022-12-03T14:34:43.753Z,6.83
2022-12-03T14:37:10.435Z,6.85
2022-12-03T14:39:37.287Z,6.93
2022-12-03T14:42:13.406Z,6.96
2022-12-03T14:44:48.307Z,6.91
2022-12-03T14:47:17.054Z,6.81
2022-12-03T14:49:44.102Z,6.79
2022-12-03T14:52:12.404Z,6.74
2022-12-03T14:54:42.427Z,6.79
2022-12-03T14:57:11.576Z,6.89
2022-12-03T14:59:39.689Z,6.95
2022-12-03T15:02:06.848Z,6.83
2022-12-03T15:04:33.655Z,6.84
2022-12-03T15:07:00.480Z,6.86
2022-12-03T15:09:27.194Z,6.86
2022-12-03T15:11:54.294Z,6.85
2022-12-03T15:14:20.953Z,6.83
2022-12-03T15:16:47.821Z,6.85
2022-12-03T15:19:14.890Z,6.76
2022-12-03T15:21:41.584Z,6.88
2022-12-03T15:24:08.682Z,6.77
2022-12-03T15:26:35.328Z,6.65
2022-12-03T15:29:01.959Z,6.57
2022-12-03T15:31:28.746Z,6.62
2022-12-03T15:33:55.430Z,6.62
2022-12-03T15:36:22.080Z,6.55
2022-12-03T15:38:48.785Z,6.62
2022-12-03T15:41:23.303Z,6.62
2022-12-03T15:43:51.439Z,6.55
2022-12-03T15:46:18.886Z,6.69
2022-12-03T15:48:45.834Z,6.61
2022-12-03T15:51:12.885Z,6.65
2022-12-03T15:53:40.409Z,6.69
2022-12-03T15:56:07.722Z,6.62
2022-12-03T15:58:34.836Z,6.74
2022-12-03T16:01:01.495Z,6.53
2022-12-03T16:03:28.371Z,6.56
2022-12-03T16:05:55.222Z,6.46
2022-12-03T16:08:21.982Z,6.42
2022-12-03T16:10:48.747Z,6.42
2022-12-03T16:13:15.463Z,6.40
2022-12-03T16:15:42.186Z,6.42
2022-12-03T16:18:09.367Z,6.47
2022-12-03T16:20:36.082Z,6.41
2022-12-03T16:23:02.804Z,6.42
2022-12-03T16:25:29.463Z,6.45
2022-12-03T16:27:56.941Z,6.57
2022-12-03T16:30:24.836Z,6.55
2022-12-03T16:32:51.765Z,6.52
2022-12-03T16:35:18.714Z,6.46
2022-12-03T16:37:45.460Z,6.49
2022-12-03T16:40:12.429Z,6.43
2022-12-03T16:42:39.215Z,6.33
2022-12-03T16:45:09.429Z,6.36
2022-12-03T16:47:36.542Z,6.33
2022-12-03T16:50:16.451Z,6.29
2022-12-03T16:52:47.671Z,6.31
2022-12-03T16:55:14.524Z,6.29
2022-12-03T16:57:41.183Z,6.31
2022-12-03T17:00:08.425Z,6.38
2022-12-03T17:02:35.178Z,6.28
2022-12-03T17:05:01.951Z,6.22
2022-12-03T17:07:28.834Z,6.37
2022-12-03T17:09:55.698Z,6.28
2022-12-03T17:12:22.579Z,6.31
2022-12-03T17:14:49.302Z,6.38
2022-12-03T17:17:16.105Z,6.43
2022-12-03T17:19:42.777Z,6.32
2022-12-03T17:22:09.511Z,6.33
2022-12-03T17:24:36.321Z,6.31
2022-12-03T17:27:06.052Z,6.27
2022-12-03T17:29:32.713Z,6.25
2022-12-03T17:31:59.595Z,6.21
2022-12-03T17:34:26.329Z,6.21
2022-12-03T17:36:52.965Z,6.18
2022-12-03T17:39:19.651Z,6.21
2022-12-03T17:41:46.312Z,6.25
2022-12-03T17:44:17.761Z,6.26
2022-12-03T17:46:46.378Z,6.22
2022-12-03T17:49:13.124Z,6.26
2022-12-03T17:51:39.938Z,6.23
2022-12-03T17:54:06.695Z,6.23
2022-12-03T17:56:33.725Z,6.29
2022-12-03T17:59:00.434Z,6.32
2022-12-03T18:01:27.202Z,6.31
2022-12-03T18:03:53.974Z,6.38
2022-12-03T18:06:20.718Z,6.42
2022-12-03T18:09:05.282Z,6.33
2022-12-03T18:11:32.189Z,6.32
2022-12-03T18:13:59.069Z,6.35
2022-12-03T18:16:25.852Z,6.30
2022-12-03T18:18:56.675Z,6.30
2022-12-03T18:21:27.129Z,6.26
2022-12-03T18:23:54.704Z,6.22
2022-12-03T18:26:21.798Z,6.33
2022-12-03T18:28:48.759Z,6.31
2022-12-03T18:31:18.302Z,6.33
2022-12-03T18:33:45.316Z,6.25
2022-12-03T18:36:18.826Z,6.48
2022-12-03T18:38:46.617Z,6.32
2022-12-03T18:41:13.342Z,6.36
2022-12-03T18:43:41.721Z,6.48
2022-12-03T18:46:31.042Z,6.52
2022-12-03T18:49:01.369Z,6.36
2022-12-03T18:51:29.100Z,6.45
2022-12-03T18:53:55.758Z,6.54
2022-12-03T18:56:22.554Z,6.53
2022-12-03T18:58:49.276Z,6.50
2022-12-03T19:01:21.632Z,6.50
2022-12-03T19:03:49.655Z,6.43
2022-12-03T19:06:19.242Z,6.45
2022-12-03T19:08:48.457Z,6.42
2022-12-03T19:11:15.498Z,6.38
2022-12-03T19:13:42.801Z,6.35
2022-12-03T19:16:12.157Z,6.33
2022-12-03T19:18:39.364Z,6.41
2022-12-03T19:21:11.678Z,6.40
2022-12-03T19:23:38.938Z,6.39
2022-12-03T19:26:08.198Z,6.59
2022-12-03T19:28:34.922Z,6.39
2022-12-03T19:31:05.407Z,6.33
2022-12-03T19:33:32.638Z,6.37
2022-12-03T19:36:00.296Z,6.45
2022-12-03T19:38:28.487Z,6.42
2022-12-03T19:41:06.822Z,6.44
2022-12-03T19:43:38.174Z,6.48
2022-12-03T19:46:12.391Z,6.42
2022-12-03T19:48:40.595Z,6.35
2022-12-03T19:51:32.937Z,6.34
2022-12-03T19:53:55.580Z,6.31
2022-12-03T19:56:22.288Z,6.32
2022-12-03T19:58:49.098Z,6.26
2022-12-03T20:01:18.376Z,6.18
2022-12-03T20:03:47.429Z,6.21
2022-12-03T20:06:15.968Z,6.29
2022-12-03T20:11:37.722Z,6.16
2022-12-03T20:14:07.887Z,6.23
2022-12-03T20:16:35.729Z,6.18
2022-12-03T20:19:06.399Z,6.12
2022-12-03T20:21:35.613Z,6.17
2022-12-03T20:24:02.921Z,6.21
2022-12-03T20:26:29.876Z,6.23
2022-12-03T20:28:57.526Z,6.24
2022-12-03T20:31:27.178Z,6.11
2022-12-03T20:33:57.208Z,6.18
2022-12-03T20:36:25.242Z,6.09
2022-12-03T20:39:02.548Z,6.10
2022-12-03T20:41:29.505Z,6.07
2022-12-03T20:43:56.804Z,6.00
2022-12-03T20:46:29.628Z,5.97
2022-12-03T20:48:57.112Z,5.94
2022-12-03T20:51:26.901Z,5.89
2022-12-03T20:53:54.251Z,5.90
2022-12-03T20:56:24.893Z,5.85
2022-12-03T20:58:53.306Z,5.91
2022-12-03T21:01:26.617Z,5.95
2022-12-03T21:03:55.525Z,5.92
2022-12-03T21:06:24.047Z,5.93
2022-12-03T21:08:53.448Z,5.95
2022-12-03T21:11:26.806Z,5.94
2022-12-03T21:13:54.717Z,5.84
2022-12-03T21:16:45.693Z,5.88
2022-12-03T21:19:11.521Z,5.84
2022-12-03T21:21:38.423Z,5.88
2022-12-03T21:24:05.378Z,5.88
2022-12-03T21:26:32.798Z,5.75
2022-12-03T21:28:59.465Z,5.82
2022-12-03T21:31:27.255Z,5.76
2022-12-03T21:33:55.141Z,5.77
2022-12-03T21:36:22.812Z,5.81
2022-12-03T21:38:49.749Z,5.74
2022-12-03T21:41:16.625Z,5.73
2022-12-03T21:43:44.423Z,5.76
2022-12-03T21:47:12.050Z,5.88
2022-12-03T21:49:04.293Z,5.77
2022-12-03T21:51:31.107Z,5.85
2022-12-03T21:53:57.837Z,5.83
2022-12-03T21:56:24.563Z,5.81
2022-12-03T21:58:51.296Z,5.85
2022-12-03T22:01:21.291Z,5.93
2022-12-03T22:03:48.980Z,5.81
2022-12-03T22:06:16.676Z,5.89
2022-12-03T22:08:43.771Z,5.96
2022-12-03T22:11:22.502Z,5.93
2022-12-03T22:13:49.649Z,5.83
2022-12-03T22:16:21.650Z,5.85
2022-12-03T22:18:49.301Z,5.87
2022-12-03T22:21:19.351Z,5.89
2022-12-03T22:23:46.091Z,5.90
2022-12-03T22:26:15.354Z,5.99
2022-12-03T22:28:47.123Z,5.87
2022-12-03T22:31:14.859Z,5.83
2022-12-03T22:33:42.505Z,5.96
2022-12-03T22:36:19.654Z,5.88
2022-12-03T22:38:47.153Z,5.93
2022-12-03T22:41:15.002Z,5.93
2022-12-03T22:43:41.660Z,5.86
2022-12-03T22:46:12.867Z,5.98
2022-12-03T22:48:41.242Z,5.96
2022-12-03T22:51:14.640Z,5.94
2022-12-03T22:53:41.324Z,5.89
2022-12-03T22:56:08.073Z,5.84
2022-12-03T22:58:34.967Z,5.83
2022-12-03T23:01:03.050Z,5.85
2022-12-03T23:03:30.715Z,5.81
2022-12-03T23:05:57.528Z,5.89
2022-12-03T23:08:24.180Z,5.83
2022-12-03T23:10:52.898Z,5.80
2022-12-03T23:13:20.518Z,5.82
2022-12-03T23:15:49.838Z,5.71
2022-12-03T23:18:17.917Z,5.76
2022-12-03T23:20:47.114Z,5.92
2022-12-03T23:23:14.691Z,5.89
2022-12-03T23:25:41.888Z,5.82
2022-12-03T23:28:09.191Z,5.83
2022-12-03T23:30:39.470Z,5.80
2022-12-03T23:33:06.678Z,5.83
2022-12-03T23:35:34.016Z,5.80
2022-12-03T23:38:00.861Z,5.76
2022-12-03T23:40:27.652Z,5.77
2022-12-03T23:42:54.391Z,5.82
2022-12-03T23:45:21.106Z,5.85
2022-12-03T23:47:47.786Z,5.96
2022-12-03T23:50:14.603Z,5.78
2022-12-03T23:52:41.416Z,5.76
2022-12-03T23:55:08.687Z,5.75
2022-12-03T23:57:35.503Z,5.70
